createdAt,value
2023-03-08T00:01:04.455Z,51.36
2023-03-08T00:03:31.076Z,51.51
2023-03-08T00:05:57.712Z,51.57
2023-03-08T00:08:24.346Z,51.75
2023-03-08T00:10:50.994Z,51.62
2023-03-08T00:13:17.658Z,51.89
2023-03-08T00:15:44.493Z,51.93
2023-03-08T00:18:11.112Z,51.89
2023-03-08T00:20:37.632Z,51.69
2023-03-08T00:23:04.330Z,51.93
2023-03-08T00:25:30.966Z,52.00
2023-03-08T00:27:57.569Z,52.05
2023-03-08T00:30:24.162Z,52.35
2023-03-08T00:32:50.770Z,52.28
2023-03-08T00:35:20.007Z,52.37
2023-03-08T00:37:46.640Z,52.67
2023-03-08T00:40:13.396Z,52.49
2023-03-08T00:42:40.164Z,52.47
2023-03-08T00:45:07.393Z,52.56
2023-03-08T00:47:35.696Z,52.77
2023-03-08T00:50:02.257Z,52.82
2023-03-08T00:52:29.527Z,52.88
2023-03-08T00:54:56.120Z,52.92
2023-03-08T00:57:22.631Z,53.38
2023-03-08T00:59:49.186Z,53.44
2023-03-08T01:02:15.823Z,53.32
2023-03-08T01:04:42.354Z,53.28
2023-03-08T01:07:08.925Z,53.43
2023-03-08T01:09:35.453Z,53.64
2023-03-08T01:12:02.049Z,53.65
2023-03-08T01:14:30.097Z,53.58
2023-03-08T01:16:56.669Z,54.00
2023-03-08T01:19:23.245Z,54.03
2023-03-08T01:21:49.775Z,53.95
2023-03-08T01:24:16.368Z,53.74
2023-03-08T01:26:42.899Z,54.11
2023-03-08T01:29:09.532Z,54.35
2023-03-08T01:31:36.093Z,54.45
2023-03-08T01:36:40.872Z,55.02
2023-03-08T01:39:07.502Z,54.98
2023-03-08T01:41:34.174Z,55.23
2023-03-08T01:44:00.854Z,55.29
2023-03-08T01:46:34.424Z,55.29
2023-03-08T01:49:17.744Z,55.09
2023-03-08T01:52:12.619Z,55.83
2023-03-08T01:54:44.043Z,55.64
2023-03-08T01:57:31.698Z,55.95
2023-03-08T02:00:07.128Z,55.87
2023-03-08T02:02:41.911Z,55.87
2023-03-08T02:05:09.854Z,56.10
2023-03-08T02:07:36.489Z,55.78
2023-03-08T02:10:03.609Z,55.85
2023-03-08T02:12:30.564Z,55.71
2023-03-08T02:14:58.532Z,56.14
2023-03-08T02:17:26.570Z,56.37
2023-03-08T02:20:19.099Z,56.25
2023-03-08T02:22:47.129Z,56.36
2023-03-08T02:25:19.724Z,56.26
2023-03-08T02:27:46.631Z,56.22
2023-03-08T02:30:15.483Z,56.22
2023-03-08T02:32:42.071Z,55.66
2023-03-08T02:35:09.072Z,56.42
2023-03-08T02:37:35.685Z,56.24
2023-03-08T02:40:02.261Z,56.30
2023-03-08T02:42:28.812Z,56.29
2023-03-08T02:44:55.391Z,56.59
2023-03-08T02:47:21.919Z,55.84
2023-03-08T02:49:48.484Z,55.72
2023-03-08T02:52:15.158Z,55.68
2023-03-08T02:54:41.872Z,55.81
2023-03-08T02:57:08.434Z,55.97
2023-03-08T02:59:34.998Z,56.22
2023-03-08T03:02:01.755Z,56.13
2023-03-08T03:04:32.755Z,56.11
2023-03-08T03:06:59.743Z,56.27
2023-03-08T03:09:27.333Z,56.42
2023-03-08T03:11:54.016Z,56.01
2023-03-08T03:14:20.577Z,55.09
2023-03-08T03:19:18.572Z,55.69
2023-03-08T03:21:45.138Z,55.25
2023-03-08T03:24:11.800Z,55.58
2023-03-08T03:26:39.110Z,55.52
2023-03-08T03:29:05.722Z,55.19
2023-03-08T03:31:32.423Z,55.71
2023-03-08T03:33:59.078Z,55.65
2023-03-08T03:36:25.745Z,55.37
2023-03-08T03:38:52.410Z,55.48
2023-03-08T03:41:21.783Z,55.45
2023-03-08T03:43:49.568Z,55.68
2023-03-08T03:46:19.309Z,56.06
2023-03-08T03:48:46.641Z,56.21
2023-03-08T03:51:18.878Z,55.86
2023-03-08T03:53:46.268Z,56.02
2023-03-08T03:56:22.509Z,55.78
2023-03-08T03:58:50.145Z,55.69
2023-03-08T04:01:22.253Z,55.57
2023-03-08T04:03:49.356Z,55.63
2023-03-08T04:06:19.318Z,55.77
2023-03-08T04:11:27.240Z,55.65
2023-03-08T04:13:54.325Z,55.70
2023-03-08T04:16:24.694Z,55.61
2023-03-08T04:18:57.452Z,55.70
2023-03-08T04:21:24.800Z,56.02
2023-03-08T04:23:51.578Z,55.92
2023-03-08T04:28:51.683Z,56.18
2023-03-08T04:31:23.548Z,56.41
2023-03-08T04:36:22.503Z,55.70
2023-03-08T04:38:50.987Z,55.52
2023-03-08T04:41:18.523Z,55.51
2023-03-08T04:43:50.954Z,56.18
2023-03-08T04:46:19.403Z,56.42
2023-03-08T04:48:46.796Z,55.84
2023-03-08T04:53:46.936Z,56.22
2023-03-08T05:01:23.345Z,55.74
2023-03-08T05:03:51.358Z,56.06
2023-03-08T05:06:19.840Z,56.49
2023-03-08T05:08:46.749Z,56.01
2023-03-08T05:11:25.613Z,56.00
2023-03-08T05:13:54.789Z,55.88
2023-03-08T05:16:21.750Z,56.04
2023-03-08T05:18:48.760Z,55.82
2023-03-08T05:21:18.108Z,56.33
2023-03-08T05:23:44.855Z,55.94
2023-03-08T05:26:14.506Z,57.28
2023-03-08T05:28:44.042Z,57.17
2023-03-08T05:31:14.809Z,56.74
2023-03-08T05:33:42.689Z,56.60
2023-03-08T05:36:10.819Z,56.52
2023-03-08T05:38:37.377Z,56.83
2023-03-08T05:41:06.813Z,56.53
2023-03-08T05:43:34.306Z,56.31
2023-03-08T05:46:15.333Z,56.14
2023-03-08T05:48:42.208Z,55.90
2023-03-08T05:51:11.625Z,55.94
2023-03-08T05:53:38.266Z,55.75
2023-03-08T05:56:23.893Z,56.01
2023-03-08T05:58:51.822Z,55.86
2023-03-08T06:01:21.131Z,56.22
2023-03-08T06:03:49.931Z,56.01
2023-03-08T06:06:17.511Z,56.49
2023-03-08T06:08:44.556Z,56.19
2023-03-08T06:11:13.236Z,56.16
2023-03-08T06:13:40.516Z,56.53
2023-03-08T06:16:08.045Z,56.22
2023-03-08T06:18:37.085Z,55.69
2023-03-08T06:21:12.634Z,55.77
2023-03-08T06:23:40.016Z,55.82
2023-03-08T06:26:08.217Z,55.62
2023-03-08T06:28:35.829Z,56.23
2023-03-08T06:31:03.324Z,56.32
2023-03-08T06:33:31.776Z,56.60
2023-03-08T06:36:02.852Z,55.94
2023-03-08T06:38:33.297Z,55.91
2023-03-08T06:41:00.554Z,56.18
2023-03-08T06:43:27.922Z,56.14
2023-03-08T06:45:54.855Z,56.45
2023-03-08T06:48:21.506Z,55.88
2023-03-08T06:50:48.070Z,56.09
2023-03-08T06:53:14.799Z,56.20
2023-03-08T06:55:42.098Z,56.42
2023-03-08T06:58:09.272Z,55.79
2023-03-08T07:05:44.558Z,55.85
2023-03-08T07:08:11.197Z,56.31
2023-03-08T07:10:37.794Z,56.52
2023-03-08T07:13:04.440Z,59.91
2023-03-08T07:15:31.072Z,56.84
2023-03-08T07:17:57.773Z,56.85
2023-03-08T07:20:26.381Z,56.66
2023-03-08T07:22:54.126Z,57.28
2023-03-08T07:25:21.196Z,57.41
2023-03-08T07:27:47.962Z,57.54
2023-03-08T07:30:16.114Z,57.59
2023-03-08T07:32:43.197Z,57.01
2023-03-08T07:35:12.209Z,56.63
2023-03-08T07:37:39.092Z,56.71
2023-03-08T07:40:07.249Z,57.31
2023-03-08T07:45:07.292Z,57.18
2023-03-08T07:47:33.862Z,57.48
2023-03-08T07:50:00.427Z,57.37
2023-03-08T07:52:31.413Z,57.32
2023-03-08T07:54:58.109Z,57.79
2023-03-08T07:59:58.756Z,57.57
2023-03-08T08:02:25.366Z,58.21
2023-03-08T08:04:52.009Z,58.42
2023-03-08T08:07:18.623Z,59.26
2023-03-08T08:09:45.166Z,59.58
2023-03-08T08:12:11.808Z,60.64
2023-03-08T08:17:16.248Z,61.17
2023-03-08T08:19:42.850Z,61.75
2023-03-08T08:22:09.418Z,61.65
2023-03-08T08:24:36.054Z,61.44
2023-03-08T08:27:02.975Z,61.33
2023-03-08T08:29:29.633Z,61.22
2023-03-08T08:31:57.085Z,61.23
2023-03-08T08:34:24.038Z,60.09
2023-03-08T08:36:50.625Z,60.05
2023-03-08T08:39:17.262Z,59.10
2023-03-08T08:41:43.826Z,60.10
2023-03-08T08:44:10.419Z,60.54
2023-03-08T08:46:37.073Z,62.38
2023-03-08T08:49:05.620Z,65.92
2023-03-08T08:51:32.798Z,64.07
2023-03-08T08:53:59.660Z,64.93
2023-03-08T08:56:28.901Z,66.25
2023-03-08T08:58:57.302Z,67.24
2023-03-08T09:03:59.670Z,68.50
2023-03-08T09:06:28.553Z,68.85
2023-03-08T09:08:59.663Z,68.40
2023-03-08T09:11:27.581Z,69.40
2023-03-08T09:13:54.881Z,70.55
2023-03-08T09:16:39.505Z,71.44
2023-03-08T09:21:40.163Z,72.16
2023-03-08T09:26:40.117Z,72.86
2023-03-08T09:29:07.734Z,72.57
2023-03-08T09:31:36.724Z,73.92
2023-03-08T09:34:05.369Z,73.65
2023-03-08T09:36:31.972Z,74.00
2023-03-08T09:38:58.489Z,74.87
2023-03-08T09:41:49.599Z,74.37
2023-03-08T09:47:50.669Z,76.61
2023-03-08T09:50:29.565Z,76.36
2023-03-08T09:53:00.279Z,76.59
2023-03-08T09:55:33.512Z,75.68
2023-03-08T09:58:05.170Z,75.75
2023-03-08T10:00:37.637Z,75.98
2023-03-08T10:03:13.203Z,75.81
2023-03-08T10:06:03.973Z,75.62
2023-03-08T10:08:46.788Z,75.82
2023-03-08T10:11:21.230Z,76.46
2023-03-08T10:13:52.446Z,76.07
2023-03-08T10:16:26.263Z,75.74
2023-03-08T10:19:04.576Z,76.57
2023-03-08T10:21:33.991Z,75.45
2023-03-08T10:24:12.135Z,75.06
2023-03-08T10:26:38.688Z,74.91
2023-03-08T10:29:05.372Z,73.81
2023-03-08T10:31:33.923Z,72.48
2023-03-08T10:34:09.158Z,73.62
2023-03-08T10:36:48.279Z,73.72
2023-03-08T10:39:16.489Z,74.60
2023-03-08T10:41:46.301Z,74.82
2023-03-08T10:44:31.232Z,74.63
2023-03-08T10:46:57.775Z,74.66
2023-03-08T10:49:27.756Z,73.95
2023-03-08T10:52:00.444Z,73.62
2023-03-08T10:54:28.704Z,73.99
2023-03-08T10:56:59.185Z,74.81
2023-03-08T10:59:34.926Z,74.88
2023-03-08T11:02:13.550Z,74.77
2023-03-08T11:04:51.229Z,75.00
2023-03-08T11:07:24.769Z,75.92
2023-03-08T11:09:52.130Z,76.47
2023-03-08T11:12:26.368Z,76.76
2023-03-08T11:14:53.241Z,76.86
2023-03-08T11:17:35.645Z,76.82
2023-03-08T11:20:13.971Z,76.57
2023-03-08T11:22:49.381Z,76.81
2023-03-08T11:25:19.763Z,76.78
2023-03-08T11:31:05.919Z,76.30
2023-03-08T11:34:03.383Z,76.01
2023-03-08T11:37:07.089Z,76.33
2023-03-08T11:39:40.595Z,76.45
2023-03-08T11:42:29.960Z,76.70
2023-03-08T11:45:25.858Z,76.40
2023-03-08T11:48:13.975Z,75.79
2023-03-08T11:50:53.451Z,76.12
2023-03-08T11:53:22.556Z,76.27
2023-03-08T11:56:09.660Z,76.14
2023-03-08T11:58:53.514Z,75.22
2023-03-08T12:01:24.618Z,74.88
2023-03-08T12:03:56.030Z,75.30
2023-03-08T12:06:33.397Z,75.36
2023-03-08T12:09:18.957Z,75.16
2023-03-08T12:11:51.593Z,74.95
2023-03-08T12:14:30.926Z,74.69
2023-03-08T12:17:07.739Z,74.51
2023-03-08T12:19:48.534Z,74.45
2023-03-08T12:22:43.066Z,74.68
2023-03-08T12:25:22.877Z,74.27
2023-03-08T12:27:55.737Z,74.56
2023-03-08T12:30:33.928Z,74.23
2023-03-08T12:33:04.593Z,74.20
2023-03-08T12:35:34.516Z,73.61
2023-03-08T12:38:05.196Z,73.80
2023-03-08T12:40:44.463Z,73.89
2023-03-08T12:43:28.615Z,73.32
2023-03-08T12:46:04.700Z,73.49
2023-03-08T12:48:35.663Z,73.19
2023-03-08T12:51:08.355Z,73.55
2023-03-08T12:53:41.778Z,73.53
2023-03-08T12:56:11.246Z,74.11
2023-03-08T12:59:00.179Z,73.67
2023-03-08T13:01:29.620Z,73.59
2023-03-08T13:03:56.710Z,73.48
2023-03-08T13:06:23.315Z,73.61
2023-03-08T13:08:57.383Z,73.81
2023-03-08T13:11:27.041Z,73.46
2023-03-08T13:16:38.465Z,73.80
2023-03-08T13:19:13.887Z,73.82
2023-03-08T13:21:58.924Z,73.99
2023-03-08T13:24:36.665Z,73.87
2023-03-08T13:27:09.320Z,73.69
2023-03-08T13:29:36.372Z,73.76
2023-03-08T13:32:12.022Z,73.85
2023-03-08T13:34:38.894Z,73.85
2023-03-08T13:37:05.510Z,73.65
2023-03-08T13:39:32.359Z,73.55
2023-03-08T13:42:11.286Z,73.50
2023-03-08T13:47:37.847Z,73.24
2023-03-08T13:50:06.404Z,73.19
2023-03-08T13:55:21.062Z,73.29
2023-03-08T13:57:52.307Z,73.01
2023-03-08T14:00:18.900Z,73.38
2023-03-08T14:02:47.207Z,73.28
2023-03-08T14:05:18.264Z,73.47
2023-03-08T14:08:06.169Z,73.22
2023-03-08T14:11:01.202Z,73.00
2023-03-08T14:13:32.418Z,72.22
2023-03-08T14:16:01.859Z,71.98
2023-03-08T14:21:15.342Z,71.76
2023-03-08T14:23:54.795Z,72.38
2023-03-08T14:26:33.948Z,71.81
2023-03-08T14:29:21.869Z,71.98
2023-03-08T14:31:55.897Z,71.94
2023-03-08T14:34:26.146Z,71.61
2023-03-08T14:36:59.439Z,72.20
2023-03-08T14:39:28.688Z,72.17
2023-03-08T14:41:55.922Z,72.39
2023-03-08T14:44:29.550Z,72.29
2023-03-08T14:46:58.930Z,72.02
2023-03-08T14:49:28.405Z,72.74
2023-03-08T14:51:55.891Z,75.06
2023-03-08T14:54:33.310Z,74.31
2023-03-08T14:57:13.906Z,74.84
2023-03-08T14:59:41.636Z,74.55
2023-03-08T15:02:13.388Z,75.35
2023-03-08T15:04:40.589Z,75.55
2023-03-08T15:07:07.880Z,75.55
2023-03-08T15:09:34.958Z,74.52
2023-03-08T15:12:01.918Z,74.77
2023-03-08T15:14:30.641Z,75.05
2023-03-08T15:16:58.357Z,75.23
2023-03-08T15:19:25.233Z,76.27
2023-03-08T15:21:52.262Z,75.67
2023-03-08T15:24:19.396Z,76.11
2023-03-08T15:26:46.494Z,76.04
2023-03-08T15:29:28.469Z,76.06
2023-03-08T15:31:55.838Z,76.20
2023-03-08T15:34:22.557Z,76.18
2023-03-08T15:36:50.733Z,75.47
2023-03-08T15:39:17.837Z,75.60
2023-03-08T15:41:44.477Z,75.27
2023-03-08T15:44:11.005Z,76.03
2023-03-08T15:46:37.764Z,76.03
2023-03-08T15:49:04.941Z,76.10
2023-03-08T15:51:34.746Z,76.37
2023-03-08T15:54:02.864Z,76.76
2023-03-08T15:56:29.423Z,76.71
2023-03-08T15:58:56.782Z,76.65
2023-03-08T16:01:25.272Z,76.31
2023-03-08T16:03:53.487Z,76.36
2023-03-08T16:06:20.354Z,76.42
2023-03-08T16:08:47.205Z,76.85
2023-03-08T16:11:16.630Z,76.55
2023-03-08T16:13:43.254Z,76.36
2023-03-08T16:16:10.166Z,76.64
2023-03-08T16:18:37.248Z,77.23
2023-03-08T16:21:11.515Z,77.32
2023-03-08T16:23:39.360Z,77.09
2023-03-08T16:26:16.244Z,77.13
2023-03-08T16:28:45.259Z,76.93
2023-03-08T16:31:12.599Z,76.66
2023-03-08T16:33:39.904Z,76.64
2023-03-08T16:36:07.357Z,78.04
2023-03-08T16:41:12.599Z,83.71
2023-03-08T16:46:21.542Z,83.65
2023-03-08T16:51:23.876Z,82.12
2023-03-08T16:53:51.103Z,82.17
2023-03-08T16:56:25.935Z,81.38
2023-03-08T16:58:57.469Z,81.72
2023-03-08T17:01:24.761Z,82.13
2023-03-08T17:03:52.509Z,81.57
2023-03-08T17:06:22.242Z,82.31
2023-03-08T17:08:49.213Z,83.59
2023-03-08T17:11:17.867Z,83.44
2023-03-08T17:13:50.969Z,83.29
2023-03-08T17:16:23.144Z,83.75
2023-03-08T17:18:50.693Z,83.72
2023-03-08T17:21:19.075Z,83.96
2023-03-08T17:26:23.137Z,84.35
2023-03-08T17:28:54.179Z,84.47
2023-03-08T17:31:22.338Z,84.40
2023-03-08T17:33:49.214Z,84.45
2023-03-08T17:36:16.177Z,84.20
2023-03-08T17:38:43.113Z,84.47
2023-03-08T17:41:12.438Z,84.81
2023-03-08T17:43:41.157Z,85.27
2023-03-08T17:46:22.470Z,85.20
2023-03-08T17:48:50.771Z,86.00
2023-03-08T17:51:23.087Z,85.79
2023-03-08T17:53:50.050Z,85.50
2023-03-08T17:56:25.139Z,85.05
2023-03-08T17:58:52.470Z,85.37
2023-03-08T18:01:21.617Z,85.86
2023-03-08T18:03:48.636Z,85.60
2023-03-08T18:06:19.937Z,85.45
2023-03-08T18:08:46.522Z,85.65
2023-03-08T18:11:13.082Z,85.27
2023-03-08T18:13:40.807Z,86.26
2023-03-08T18:16:07.878Z,85.42
2023-03-08T18:18:34.468Z,85.44
2023-03-08T18:21:12.510Z,85.21
2023-03-08T18:23:39.629Z,85.44
2023-03-08T18:26:06.315Z,85.18
2023-03-08T18:28:34.350Z,85.18
2023-03-08T18:31:06.081Z,85.65
2023-03-08T18:33:32.634Z,86.02
2023-03-08T18:35:59.386Z,86.36
2023-03-08T18:38:26.371Z,86.43
2023-03-08T18:40:53.204Z,87.13
2023-03-08T18:43:19.836Z,87.03
2023-03-08T18:45:53.937Z,87.14
2023-03-08T18:48:22.001Z,87.79
2023-03-08T18:50:48.824Z,87.00
2023-03-08T18:53:18.133Z,87.25
2023-03-08T18:56:04.290Z,86.71
2023-03-08T18:58:31.108Z,86.67
2023-03-08T19:00:59.235Z,86.29
2023-03-08T19:06:04.975Z,86.09
2023-03-08T19:11:15.669Z,85.57
2023-03-08T19:13:43.450Z,85.14
2023-03-08T19:16:27.991Z,84.55
2023-03-08T19:19:00.123Z,84.03
2023-03-08T19:21:32.280Z,84.53
2023-03-08T19:26:36.176Z,87.20
2023-03-08T19:29:15.522Z,89.36
2023-03-08T19:31:43.465Z,90.28
2023-03-08T19:34:11.402Z,90.06
2023-03-08T19:36:38.210Z,88.02
2023-03-08T19:39:07.585Z,88.68
2023-03-08T19:41:34.587Z,88.50
2023-03-08T19:44:06.967Z,89.07
2023-03-08T19:46:38.540Z,90.48
2023-03-08T19:49:07.662Z,91.55
2023-03-08T19:51:34.694Z,92.00
2023-03-08T19:54:01.358Z,91.93
2023-03-08T19:56:27.924Z,91.68
2023-03-08T19:58:59.391Z,92.65
2023-03-08T20:01:27.072Z,93.64
2023-03-08T20:03:54.161Z,93.91
2023-03-08T20:06:29.183Z,94.84
2023-03-08T20:08:57.119Z,95.55
2023-03-08T20:11:24.674Z,96.88
2023-03-08T20:13:51.448Z,97.24
2023-03-08T20:16:19.711Z,97.81
2023-03-08T20:18:49.239Z,97.56
2023-03-08T20:21:20.039Z,97.22
2023-03-08T20:23:47.773Z,97.01
2023-03-08T20:26:14.397Z,98.23
2023-03-08T20:28:41.006Z,99.54
2023-03-08T20:31:12.571Z,100.00
2023-03-08T20:33:39.891Z,100.00
2023-03-08T20:36:06.870Z,100.00
2023-03-08T20:38:33.701Z,100.00
2023-03-08T20:41:03.282Z,100.00
2023-03-08T20:43:31.048Z,100.00
2023-03-08T20:46:00.252Z,100.00
2023-03-08T20:48:26.862Z,100.00
2023-03-08T20:50:59.558Z,100.00
2023-03-08T20:53:27.154Z,100.00
2023-03-08T20:58:25.827Z,100.00
2023-03-08T21:00:52.978Z,100.00
2023-03-08T21:03:19.560Z,100.00
2023-03-08T21:05:46.186Z,100.00
2023-03-08T21:08:12.771Z,100.00
2023-03-08T21:10:40.058Z,100.00
2023-03-08T21:13:07.072Z,100.00
2023-03-08T21:15:35.031Z,100.00
2023-03-08T21:18:01.736Z,100.00
2023-03-08T21:20:28.347Z,100.00
2023-03-08T21:25:26.194Z,100.00
2023-03-08T21:27:52.717Z,100.00
2023-03-08T21:30:19.578Z,100.00
2023-03-08T21:32:46.131Z,100.00
2023-03-08T21:35:12.843Z,100.00
2023-03-08T21:37:39.383Z,100.00
2023-03-08T21:40:07.417Z,100.00
2023-03-08T21:42:34.094Z,100.00
2023-03-08T21:45:00.836Z,100.00
2023-03-08T21:47:27.417Z,100.00
2023-03-08T21:49:53.937Z,100.00
2023-03-08T21:52:20.515Z,100.00
2023-03-08T21:54:47.037Z,100.00
2023-03-08T21:57:13.616Z,100.00
2023-03-08T21:59:40.232Z,100.00
2023-03-08T22:02:09.922Z,100.00
2023-03-08T22:04:38.087Z,100.00
2023-03-08T22:07:04.657Z,100.00
2023-03-08T22:09:31.193Z,100.00
2023-03-08T22:11:58.602Z,100.00
2023-03-08T22:14:25.249Z,100.00
2023-03-08T22:16:51.821Z,100.00
2023-03-08T22:19:18.369Z,100.00
2023-03-08T22:21:44.975Z,100.00
2023-03-08T22:24:11.593Z,100.00
2023-03-08T22:26:38.253Z,100.00
2023-03-08T22:29:05.062Z,100.00
2023-03-08T22:34:03.302Z,100.00
2023-03-08T22:36:29.907Z,100.00
2023-03-08T22:38:56.474Z,100.00
2023-03-08T22:41:25.363Z,100.00
2023-03-08T22:43:52.822Z,100.00
2023-03-08T22:46:22.149Z,100.00
2023-03-08T22:51:24.496Z,100.00
2023-03-08T22:53:51.439Z,100.00
2023-03-08T22:56:21.767Z,100.00
2023-03-08T22:58:48.984Z,100.00
2023-03-08T23:01:17.822Z,100.00
2023-03-08T23:03:44.777Z,100.00
2023-03-08T23:06:11.388Z,100.00
2023-03-08T23:08:38.402Z,100.00
2023-03-08T23:11:06.360Z,100.00
2023-03-08T23:13:34.631Z,100.00
2023-03-08T23:16:01.917Z,100.00
2023-03-08T23:18:29.043Z,100.00
2023-03-08T23:20:55.740Z,100.00
2023-03-08T23:23:25.236Z,100.00
2023-03-08T23:25:52.649Z,100.00
2023-03-08T23:28:19.884Z,100.00
2023-03-08T23:30:46.701Z,100.00
2023-03-08T23:33:13.481Z,100.00
2023-03-08T23:35:40.282Z,100.00
2023-03-08T23:38:07.308Z,100.00
2023-03-08T23:40:33.855Z,100.00
2023-03-08T23:43:00.455Z,100.00
2023-03-08T23:45:27.189Z,100.00
2023-03-08T23:47:53.743Z,100.00
2023-03-08T23:50:20.380Z,100.00
2023-03-08T23:52:46.932Z,100.00
2023-03-08T23:55:13.654Z,100.00
2023-03-08T23:57:40.216Z,100.00
